Main page
METAR-TAF:

METAR-TAF

Airports :

Gwadar International Airport

Gwadar, Pakistan

latitude: 25-13-59N, longitude: 062-19-46E, elevation: 29 m

METAR: missing

Time: 22:17 (17:17 UTC)

Forecast

The report was made 7 hours and 17 minutes ago, at 10:00 UTC
Forecast valid from 23 at 12 UTC to 24 at 12 UTC
Wind 12 kt from the Southwest
Visibility: 4000 m
haze
Becoming
from 23 at 18 UTC to 23 at 20 UTC
Wind 8 kt from the Southwest
Visibility: 2500 m
smoke
Temporary
from 24 at 00 UTC to 24 at 04 UTC
Wind kt from the North
mist
From 24 at 0500 UTC
Wind 5 kt from the Southwest with gusts up to 15 kt
Visibility: 4000 m
haze

TAF: OPGD 231000Z 2312/2412 23012KT 4000 HZ NSC BECMG 2318/2320 23008KT 2500 FU NSC TEMPO 2400/2404 00000KT BR NSC FM240500 23005G15KT 4000 HZ NSC

Weather observations and forecasts of more than 4000 airports (METAR and TAF reports).

The available stations are represented by yellow and red dots on the map.

Hover mouse over dot to see the name of the station.

Then click to see weather observations and forecasts.

To change the map : click on the green buttons with a black cross to zoom in, on the green button with a dash to zoom out, or on the green arrows for adjacent maps.


METAR-TAF: